Wetterdaten: aktuell Donnerstag, 13.08.2020 22:15
Datum Zeit Temp. I. Temp. A. Feuchte I. Feuchte A. Luftdruck Regen Wind Richtung Richtung Taupunkt Windchill Windben
13.08.2020 22:15 23,5 C 20,3 C 51 % 78 % 1016,6 hPa 0,0 l/m 0,0 km/h (0 Bft) SO 143 16,3 C 20,3 C 0,0 km/h (0 Bft)
13.08.2020 21:15 23,5 C 20,6 C 50 % 75 % 1016,6 hPa 0,0 l/m 0,0 km/h (0 Bft) S-SO 153 16,0 C 20,6 C 0,0 km/h (0 Bft)
13.08.2020 20:15 23,5 C 21,6 C 50 % 67 % 1016,5 hPa 0,0 l/m 4,3 km/h (1 Bft) S-SW 200 15,2 C 21,6 C 9,4 km/h (2 Bft)
13.08.2020 19:15 23,5 C 22,2 C 50 % 64 % 1016,4 hPa 0,0 l/m 5,8 km/h (2 Bft) S-SW 204 15,1 C 22,2 C 7,9 km/h (2 Bft)
13.08.2020 18:15 23,6 C 22,4 C 50 % 64 % 1015,3 hPa 0,0 l/m 7,2 km/h (2 Bft) SW 234 15,2 C 22,1 C 7,9 km/h (2 Bft)
13.08.2020 17:15 23,6 C 22,6 C 50 % 66 % 1015,3 hPa 0,0 l/m 8,6 km/h (2 Bft) W-SW 248 15,9 C 21,9 C 14,0 km/h (3 Bft)
13.08.2020 16:15 23,6 C 24,5 C 50 % 58 % 1015,1 hPa 0,0 l/m 14,0 km/h (3 Bft) SW 220 15,7 C 22,9 C 16,2 km/h (3 Bft)
13.08.2020 15:15 23,7 C 31,1 C 50 % 55 % 1013,2 hPa 0,0 l/m 10,1 km/h (2 Bft) SW 215 21,0 C 30,9 C 24,8 km/h (4 Bft)
13.08.2020 14:15 23,6 C 32,1 C 50 % 55 % 1013,1 hPa 0,0 l/m 3,6 km/h (1 Bft) O-SO 122 21,9 C 32,1 C 7,2 km/h (2 Bft)
13.08.2020 13:15 23,5 C 32,4 C 50 % 55 % 1014,1 hPa 0,0 l/m 7,9 km/h (2 Bft) S-SO 160 22,2 C 32,4 C 9,4 km/h (2 Bft)
13.08.2020 12:15 23,4 C 32,5 C 50 % 55 % 1014,0 hPa 0,0 l/m 7,2 km/h (2 Bft) O 98 22,3 C 32,5 C 9,4 km/h (2 Bft)
13.08.2020 11:15 23,3 C 30,9 C 50 % 56 % 1014,2 hPa 0,0 l/m 6,5 km/h (2 Bft) SO 138 21,1 C 30,9 C 8,6 km/h (2 Bft)
13.08.2020 10:15 23,3 C 27,5 C 50 % 57 % 1014,7 hPa 0,0 l/m 8,6 km/h (2 Bft) SO 129 18,2 C 27,1 C 8,6 km/h (2 Bft)
13.08.2020 09:15 23,0 C 24,0 C 50 % 63 % 1015,1 hPa 0,0 l/m 0,0 km/h (0 Bft) W-NW 293 16,5 C 24,0 C 0,0 km/h (0 Bft)
13.08.2020 08:15 22,6 C 20,0 C 51 % 86 % 1016,7 hPa 0,0 l/m 0,0 km/h (0 Bft) W-NW 293 17,6 C 20,0 C 0,0 km/h (0 Bft)
13.08.2020 07:15 21,6 C 16,9 C 51 % 94 % 1016,1 hPa 0,0 l/m 0,0 km/h (0 Bft) W-NW 293 15,9 C 16,9 C 0,0 km/h (0 Bft)
13.08.2020 06:15 21,9 C 15,7 C 47 % 91 % 1016,2 hPa 0,0 l/m 0,0 km/h (0 Bft) W-NW 293 14,2 C 15,7 C 0,0 km/h (0 Bft)
13.08.2020 05:15 23,2 C 15,9 C 45 % 89 % 1016,2 hPa 0,0 l/m 0,0 km/h (0 Bft) NW 306 14,1 C 15,9 C 0,0 km/h (0 Bft)
13.08.2020 04:15 23,4 C 16,5 C 46 % 87 % 1017,2 hPa 0,0 l/m 0,0 km/h (0 Bft) W-NW 298 14,3 C 16,5 C 0,0 km/h (0 Bft)
13.08.2020 03:15 23,5 C 17,0 C 47 % 85 % 1017,1 hPa 0,0 l/m 0,0 km/h (0 Bft) W-NW 298 14,5 C 17,0 C 0,0 km/h (0 Bft)
13.08.2020 02:15 23,6 C 17,6 C 47 % 83 % 1017,0 hPa 0,0 l/m 0,0 km/h (0 Bft) W-NW 298 14,7 C 17,6 C 0,0 km/h (0 Bft)
13.08.2020 01:15 23,8 C 18,7 C 48 % 77 % 1016,9 hPa 0,0 l/m 0,0 km/h (0 Bft) W-NW 298 14,6 C 18,7 C 0,0 km/h (0 Bft)
13.08.2020 00:15 23,9 C 19,7 C 48 % 73 % 1016,7 hPa 0,0 l/m 0,0 km/h (0 Bft) W-NW 298 14,7 C 19,7 C 0,0 km/h (0 Bft)
12.08.2020 23:15 24,0 C 21,0 C 48 % 62 % 1016,6 hPa 0,0 l/m 0,0 km/h (0 Bft) W-NW 298 13,4 C 21,0 C 0,0 km/h (0 Bft)
12.08.2020 23:00 24,0 C 21,3 C 48 % 59 % 1017,6 hPa 0,0 l/m 0,0 km/h (0 Bft) W-NW 298 13,0 C 21,3 C 0,0 km/h (0 Bft)
_ Min-Zeit 06:41 06:23 05:10 12:21 15:01 - 23:00 - - 23:00 06:23 23:00
Minimum _ 21,5 C 15,6 C 45 % 54 % 1012,8 hPa - 0,0 km/h (0 Bft) - - 13,0 C 15,6 C 0,0 km/h (0 Bft)
_ Max-Zeit 23:00 15:01 07:19 06:59 00:05 23:00 15:45 - - 15:01 15:01 15:34
Maximum _ 24,0 C 34,5 C 52 % 94 % 1017,8 hPa 0,0 l/m 26,3 km/h
SW (4 Bft)
- - 23,8 C 34,5 C 34,6 km/h
S (5 Bft)
Durchschnitt _ 23,3 C 22,8 C 49 % 71 % 1015,7 hPa #0,0 l/m 3,5 km/h (1 Bft) SW - 16,8 C 22,6 C 4,5 km/h (1 Bft)